sensor_id;sensor_type;location;lat;lon;timestamp;P1;durP1;ratioP1;P2;durP2;ratioP2
75898;SDS011;64576;50.460;4.866;2022-11-20T00:02:21;195.52;;;42.95;;
75898;SDS011;64576;50.460;4.866;2022-11-20T00:04:47;215.02;;;41.20;;
75898;SDS011;64576;50.460;4.866;2022-11-20T00:07:12;386.02;;;59.38;;
75898;SDS011;64576;50.460;4.866;2022-11-20T00:09:37;229.57;;;43.17;;
75898;SDS011;64576;50.460;4.866;2022-11-20T00:12:03;209.80;;;46.17;;
75898;SDS011;64576;50.460;4.866;2022-11-20T00:14:28;463.35;;;59.40;;
75898;SDS011;64576;50.460;4.866;2022-11-20T00:16:53;273.80;;;46.70;;
75898;SDS011;64576;50.460;4.866;2022-11-20T00:19:19;298.65;;;49.15;;
75898;SDS011;64576;50.460;4.866;2022-11-20T00:21:44;438.42;;;62.47;;
75898;SDS011;64576;50.460;4.866;2022-11-20T00:24:09;612.10;;;75.80;;
75898;SDS011;64576;50.460;4.866;2022-11-20T00:26:35;410.83;;;57.30;;
75898;SDS011;64576;50.460;4.866;2022-11-20T00:29:01;274.00;;;49.65;;
75898;SDS011;64576;50.460;4.866;2022-11-20T00:31:27;382.70;;;55.50;;
75898;SDS011;64576;50.460;4.866;2022-11-20T00:33:53;275.02;;;45.95;;
75898;SDS011;64576;50.460;4.866;2022-11-20T00:36:20;162.38;;;42.40;;
75898;SDS011;64576;50.460;4.866;2022-11-20T00:38:50;248.85;;;44.20;;
75898;SDS011;64576;50.460;4.866;2022-11-20T00:41:17;349.25;;;54.30;;
75898;SDS011;64576;50.460;4.866;2022-11-20T00:43:42;285.20;;;45.78;;
75898;SDS011;64576;50.460;4.866;2022-11-20T00:46:09;264.58;;;45.00;;
75898;SDS011;64576;50.460;4.866;2022-11-20T00:48:37;444.20;;;60.03;;
75898;SDS011;64576;50.460;4.866;2022-11-20T00:51:02;382.40;;;54.72;;
75898;SDS011;64576;50.460;4.866;2022-11-20T00:53:27;402.10;;;58.42;;
75898;SDS011;64576;50.460;4.866;2022-11-20T00:55:56;406.13;;;57.88;;
75898;SDS011;64576;50.460;4.866;2022-11-20T00:58:30;505.58;;;66.97;;
75898;SDS011;64576;50.460;4.866;2022-11-20T01:01:00;378.23;;;52.92;;
75898;SDS011;64576;50.460;4.866;2022-11-20T01:03:32;337.23;;;48.08;;
75898;SDS011;64576;50.460;4.866;2022-11-20T01:06:02;297.95;;;46.85;;
75898;SDS011;64576;50.460;4.866;2022-11-20T01:08:33;387.83;;;55.58;;
75898;SDS011;64576;50.460;4.866;2022-11-20T01:11:00;414.23;;;63.05;;
75898;SDS011;64576;50.460;4.866;2022-11-20T01:13:27;317.90;;;49.15;;
75898;SDS011;64576;50.460;4.866;2022-11-20T01:18:29;211.65;;;38.17;;
75898;SDS011;64576;50.460;4.866;2022-11-20T01:20:55;337.65;;;48.13;;
75898;SDS011;64576;50.460;4.866;2022-11-20T01:23:20;192.30;;;36.63;;
75898;SDS011;64576;50.460;4.866;2022-11-20T01:25:45;117.55;;;32.20;;
75898;SDS011;64576;50.460;4.866;2022-11-20T01:28:11;245.18;;;40.90;;
75898;SDS011;64576;50.460;4.866;2022-11-20T01:30:36;242.73;;;39.28;;
75898;SDS011;64576;50.460;4.866;2022-11-20T01:33:01;361.75;;;50.78;;
75898;SDS011;64576;50.460;4.866;2022-11-20T01:35:27;305.38;;;44.53;;
75898;SDS011;64576;50.460;4.866;2022-11-20T01:37:52;264.60;;;42.67;;
75898;SDS011;64576;50.460;4.866;2022-11-20T01:40:17;423.05;;;59.70;;
75898;SDS011;64576;50.460;4.866;2022-11-20T01:42:52;534.47;;;64.75;;
75898;SDS011;64576;50.460;4.866;2022-11-20T01:48:27;470.25;;;56.92;;
75898;SDS011;64576;50.460;4.866;2022-11-20T01:50:57;405.60;;;53.70;;
75898;SDS011;64576;50.460;4.866;2022-11-20T01:53:25;266.58;;;43.38;;
75898;SDS011;64576;50.460;4.866;2022-11-20T01:55:56;415.55;;;57.50;;
75898;SDS011;64576;50.460;4.866;2022-11-20T01:58:25;299.95;;;48.15;;
75898;SDS011;64576;50.460;4.866;2022-11-20T02:00:55;413.25;;;57.47;;
75898;SDS011;64576;50.460;4.866;2022-11-20T02:03:20;406.92;;;52.58;;
75898;SDS011;64576;50.460;4.866;2022-11-20T02:05:50;511.80;;;72.10;;
75898;SDS011;64576;50.460;4.866;2022-11-20T02:08:27;362.30;;;54.80;;
75898;SDS011;64576;50.460;4.866;2022-11-20T02:10:53;420.95;;;59.03;;
75898;SDS011;64576;50.460;4.866;2022-11-20T02:13:18;119.47;;;30.70;;
75898;SDS011;64576;50.460;4.866;2022-11-20T02:16:02;116.60;;;30.02;;
75898;SDS011;64576;50.460;4.866;2022-11-20T02:18:28;114.65;;;26.98;;
75898;SDS011;64576;50.460;4.866;2022-11-20T02:20:59;99.28;;;27.35;;
75898;SDS011;64576;50.460;4.866;2022-11-20T02:23:32;94.57;;;24.63;;
75898;SDS011;64576;50.460;4.866;2022-11-20T02:26:06;87.38;;;28.15;;
75898;SDS011;64576;50.460;4.866;2022-11-20T02:28:35;91.00;;;25.75;;
75898;SDS011;64576;50.460;4.866;2022-11-20T02:31:00;88.93;;;25.77;;
75898;SDS011;64576;50.460;4.866;2022-11-20T02:33:26;75.10;;;25.00;;
75898;SDS011;64576;50.460;4.866;2022-11-20T02:35:51;76.88;;;23.40;;
75898;SDS011;64576;50.460;4.866;2022-11-20T02:38:16;79.57;;;24.27;;
75898;SDS011;64576;50.460;4.866;2022-11-20T02:40:43;96.07;;;23.88;;
75898;SDS011;64576;50.460;4.866;2022-11-20T02:43:08;89.72;;;24.60;;
75898;SDS011;64576;50.460;4.866;2022-11-20T02:45:34;80.90;;;24.20;;
75898;SDS011;64576;50.460;4.866;2022-11-20T02:48:00;85.00;;;23.98;;
75898;SDS011;64576;50.460;4.866;2022-11-20T02:50:25;92.57;;;26.83;;
75898;SDS011;64576;50.460;4.866;2022-11-20T02:52:50;91.95;;;25.80;;
75898;SDS011;64576;50.460;4.866;2022-11-20T02:55:16;76.70;;;21.80;;
75898;SDS011;64576;50.460;4.866;2022-11-20T02:57:41;78.75;;;25.52;;
75898;SDS011;64576;50.460;4.866;2022-11-20T03:00:06;97.03;;;27.52;;
75898;SDS011;64576;50.460;4.866;2022-11-20T03:02:32;86.57;;;24.50;;
75898;SDS011;64576;50.460;4.866;2022-11-20T03:04:58;93.55;;;27.10;;
75898;SDS011;64576;50.460;4.866;2022-11-20T03:07:23;88.10;;;25.83;;
75898;SDS011;64576;50.460;4.866;2022-11-20T03:09:49;106.65;;;29.30;;
75898;SDS011;64576;50.460;4.866;2022-11-20T03:12:14;83.35;;;23.42;;
75898;SDS011;64576;50.460;4.866;2022-11-20T03:14:39;89.53;;;24.75;;
75898;SDS011;64576;50.460;4.866;2022-11-20T03:17:05;104.97;;;27.50;;
75898;SDS011;64576;50.460;4.866;2022-11-20T03:19:30;92.00;;;27.05;;
75898;SDS011;64576;50.460;4.866;2022-11-20T03:21:56;87.05;;;25.95;;
75898;SDS011;64576;50.460;4.866;2022-11-20T03:24:22;72.65;;;23.55;;
75898;SDS011;64576;50.460;4.866;2022-11-20T03:26:47;89.80;;;24.80;;
75898;SDS011;64576;50.460;4.866;2022-11-20T03:29:12;92.85;;;24.73;;
75898;SDS011;64576;50.460;4.866;2022-11-20T03:31:38;93.70;;;26.17;;
75898;SDS011;64576;50.460;4.866;2022-11-20T03:34:08;94.97;;;27.42;;
75898;SDS011;64576;50.460;4.866;2022-11-20T03:36:37;98.53;;;27.23;;
75898;SDS011;64576;50.460;4.866;2022-11-20T03:39:06;96.25;;;27.98;;
75898;SDS011;64576;50.460;4.866;2022-11-20T03:41:35;109.32;;;29.30;;
75898;SDS011;64576;50.460;4.866;2022-11-20T03:44:02;111.00;;;26.00;;
75898;SDS011;64576;50.460;4.866;2022-11-20T03:46:30;120.68;;;32.42;;
75898;SDS011;64576;50.460;4.866;2022-11-20T03:48:55;125.70;;;32.63;;
75898;SDS011;64576;50.460;4.866;2022-11-20T03:51:24;124.30;;;33.33;;
75898;SDS011;64576;50.460;4.866;2022-11-20T03:53:52;149.95;;;31.02;;
75898;SDS011;64576;50.460;4.866;2022-11-20T03:56:19;114.32;;;32.67;;
75898;SDS011;64576;50.460;4.866;2022-11-20T03:58:47;116.10;;;30.75;;
75898;SDS011;64576;50.460;4.866;2022-11-20T04:01:13;124.43;;;34.03;;
75898;SDS011;64576;50.460;4.866;2022-11-20T04:03:42;121.20;;;34.72;;
75898;SDS011;64576;50.460;4.866;2022-11-20T04:06:09;126.85;;;32.63;;
75898;SDS011;64576;50.460;4.866;2022-11-20T04:08:36;142.48;;;36.25;;
75898;SDS011;64576;50.460;4.866;2022-11-20T04:11:20;124.55;;;33.65;;
75898;SDS011;64576;50.460;4.866;2022-11-20T04:13:51;104.85;;;30.60;;
75898;SDS011;64576;50.460;4.866;2022-11-20T04:16:19;133.10;;;33.50;;
75898;SDS011;64576;50.460;4.866;2022-11-20T04:18:44;150.00;;;36.40;;
75898;SDS011;64576;50.460;4.866;2022-11-20T04:21:10;135.15;;;32.45;;
75898;SDS011;64576;50.460;4.866;2022-11-20T04:23:36;140.02;;;35.60;;
75898;SDS011;64576;50.460;4.866;2022-11-20T04:26:05;114.85;;;31.75;;
75898;SDS011;64576;50.460;4.866;2022-11-20T04:28:36;122.07;;;32.22;;
75898;SDS011;64576;50.460;4.866;2022-11-20T04:31:08;142.57;;;37.00;;
75898;SDS011;64576;50.460;4.866;2022-11-20T04:33:36;144.63;;;39.10;;
75898;SDS011;64576;50.460;4.866;2022-11-20T04:36:05;119.65;;;32.03;;
75898;SDS011;64576;50.460;4.866;2022-11-20T04:38:32;136.05;;;35.47;;
75898;SDS011;64576;50.460;4.866;2022-11-20T04:40:59;128.95;;;35.47;;
75898;SDS011;64576;50.460;4.866;2022-11-20T04:43:25;146.13;;;37.33;;
75898;SDS011;64576;50.460;4.866;2022-11-20T04:45:51;144.77;;;31.73;;
75898;SDS011;64576;50.460;4.866;2022-11-20T04:48:17;153.07;;;36.60;;
75898;SDS011;64576;50.460;4.866;2022-11-20T04:50:42;140.40;;;36.65;;
75898;SDS011;64576;50.460;4.866;2022-11-20T04:53:08;126.10;;;35.40;;
75898;SDS011;64576;50.460;4.866;2022-11-20T04:55:33;142.27;;;36.83;;
75898;SDS011;64576;50.460;4.866;2022-11-20T04:57:58;141.95;;;34.60;;
75898;SDS011;64576;50.460;4.866;2022-11-20T05:00:23;140.23;;;33.63;;
75898;SDS011;64576;50.460;4.866;2022-11-20T05:02:49;141.73;;;35.22;;
75898;SDS011;64576;50.460;4.866;2022-11-20T05:05:14;142.93;;;35.20;;
75898;SDS011;64576;50.460;4.866;2022-11-20T05:07:40;122.97;;;33.00;;
75898;SDS011;64576;50.460;4.866;2022-11-20T05:10:05;125.80;;;31.70;;
75898;SDS011;64576;50.460;4.866;2022-11-20T05:12:31;133.85;;;36.00;;
75898;SDS011;64576;50.460;4.866;2022-11-20T05:14:56;146.48;;;38.20;;
75898;SDS011;64576;50.460;4.866;2022-11-20T05:17:21;151.93;;;37.53;;
75898;SDS011;64576;50.460;4.866;2022-11-20T05:19:47;162.60;;;37.25;;
75898;SDS011;64576;50.460;4.866;2022-11-20T05:22:12;161.50;;;38.78;;
75898;SDS011;64576;50.460;4.866;2022-11-20T05:24:37;151.88;;;33.60;;
75898;SDS011;64576;50.460;4.866;2022-11-20T05:27:03;129.35;;;32.80;;
75898;SDS011;64576;50.460;4.866;2022-11-20T05:29:28;140.20;;;31.23;;
75898;SDS011;64576;50.460;4.866;2022-11-20T05:31:53;131.40;;;32.58;;
75898;SDS011;64576;50.460;4.866;2022-11-20T05:34:19;122.18;;;31.25;;
75898;SDS011;64576;50.460;4.866;2022-11-20T05:36:44;127.50;;;33.58;;
75898;SDS011;64576;50.460;4.866;2022-11-20T05:39:09;134.05;;;30.88;;
75898;SDS011;64576;50.460;4.866;2022-11-20T05:41:35;118.35;;;30.05;;
75898;SDS011;64576;50.460;4.866;2022-11-20T05:44:00;136.40;;;35.08;;
75898;SDS011;64576;50.460;4.866;2022-11-20T05:46:25;148.30;;;33.70;;
75898;SDS011;64576;50.460;4.866;2022-11-20T05:48:51;133.35;;;34.20;;
75898;SDS011;64576;50.460;4.866;2022-11-20T05:51:17;148.13;;;35.53;;
75898;SDS011;64576;50.460;4.866;2022-11-20T05:53:43;135.90;;;30.50;;
75898;SDS011;64576;50.460;4.866;2022-11-20T05:56:10;135.13;;;31.73;;
75898;SDS011;64576;50.460;4.866;2022-11-20T05:58:37;133.13;;;32.97;;
75898;SDS011;64576;50.460;4.866;2022-11-20T06:01:04;116.68;;;31.92;;
75898;SDS011;64576;50.460;4.866;2022-11-20T06:03:34;125.40;;;32.63;;
75898;SDS011;64576;50.460;4.866;2022-11-20T06:06:00;138.18;;;34.42;;
75898;SDS011;64576;50.460;4.866;2022-11-20T06:08:26;123.72;;;31.98;;
75898;SDS011;64576;50.460;4.866;2022-11-20T06:10:53;111.80;;;30.60;;
75898;SDS011;64576;50.460;4.866;2022-11-20T06:13:18;110.72;;;29.00;;
75898;SDS011;64576;50.460;4.866;2022-11-20T06:15:51;122.45;;;32.58;;
75898;SDS011;64576;50.460;4.866;2022-11-20T06:20:42;99.35;;;25.83;;
75898;SDS011;64576;50.460;4.866;2022-11-20T06:23:08;107.57;;;26.67;;
75898;SDS011;64576;50.460;4.866;2022-11-20T06:25:36;111.40;;;29.00;;
75898;SDS011;64576;50.460;4.866;2022-11-20T06:28:03;123.00;;;30.83;;
75898;SDS011;64576;50.460;4.866;2022-11-20T06:30:28;117.97;;;28.75;;
75898;SDS011;64576;50.460;4.866;2022-11-20T06:32:53;134.55;;;30.48;;
75898;SDS011;64576;50.460;4.866;2022-11-20T06:35:19;124.32;;;32.15;;
75898;SDS011;64576;50.460;4.866;2022-11-20T06:37:44;108.63;;;31.02;;
75898;SDS011;64576;50.460;4.866;2022-11-20T06:40:09;111.05;;;28.05;;
75898;SDS011;64576;50.460;4.866;2022-11-20T06:42:35;123.93;;;29.80;;
75898;SDS011;64576;50.460;4.866;2022-11-20T06:45:00;142.35;;;34.72;;
75898;SDS011;64576;50.460;4.866;2022-11-20T06:47:26;149.65;;;35.97;;
75898;SDS011;64576;50.460;4.866;2022-11-20T06:49:51;153.38;;;34.35;;
75898;SDS011;64576;50.460;4.866;2022-11-20T06:52:16;171.40;;;38.13;;
75898;SDS011;64576;50.460;4.866;2022-11-20T06:54:42;160.98;;;37.58;;
75898;SDS011;64576;50.460;4.866;2022-11-20T06:57:07;335.15;;;51.80;;
75898;SDS011;64576;50.460;4.866;2022-11-20T06:59:32;172.88;;;37.30;;
75898;SDS011;64576;50.460;4.866;2022-11-20T07:01:58;218.90;;;41.78;;
75898;SDS011;64576;50.460;4.866;2022-11-20T07:04:23;215.65;;;44.35;;
75898;SDS011;64576;50.460;4.866;2022-11-20T07:06:48;162.88;;;34.08;;
75898;SDS011;64576;50.460;4.866;2022-11-20T07:09:14;135.27;;;34.22;;
75898;SDS011;64576;50.460;4.866;2022-11-20T07:11:39;119.50;;;33.42;;
75898;SDS011;64576;50.460;4.866;2022-11-20T07:14:04;137.85;;;33.90;;
75898;SDS011;64576;50.460;4.866;2022-11-20T07:16:30;129.55;;;32.33;;
75898;SDS011;64576;50.460;4.866;2022-11-20T07:18:55;142.48;;;35.28;;
75898;SDS011;64576;50.460;4.866;2022-11-20T07:21:20;150.98;;;33.63;;
75898;SDS011;64576;50.460;4.866;2022-11-20T07:23:46;131.25;;;33.00;;
75898;SDS011;64576;50.460;4.866;2022-11-20T07:26:11;109.80;;;28.77;;
75898;SDS011;64576;50.460;4.866;2022-11-20T07:28:37;116.57;;;28.70;;
75898;SDS011;64576;50.460;4.866;2022-11-20T07:31:03;133.85;;;31.77;;
75898;SDS011;64576;50.460;4.866;2022-11-20T07:33:29;146.30;;;35.33;;
75898;SDS011;64576;50.460;4.866;2022-11-20T07:35:55;142.27;;;32.22;;
75898;SDS011;64576;50.460;4.866;2022-11-20T07:38:20;116.85;;;30.80;;
75898;SDS011;64576;50.460;4.866;2022-11-20T07:40:46;118.22;;;28.70;;
75898;SDS011;64576;50.460;4.866;2022-11-20T07:43:11;120.30;;;30.13;;
75898;SDS011;64576;50.460;4.866;2022-11-20T07:45:36;110.85;;;29.52;;
75898;SDS011;64576;50.460;4.866;2022-11-20T07:48:02;96.45;;;27.30;;
75898;SDS011;64576;50.460;4.866;2022-11-20T07:50:27;96.53;;;27.08;;
75898;SDS011;64576;50.460;4.866;2022-11-20T07:52:59;144.15;;;35.33;;
75898;SDS011;64576;50.460;4.866;2022-11-20T07:55:28;102.32;;;29.10;;
75898;SDS011;64576;50.460;4.866;2022-11-20T07:57:54;99.05;;;25.80;;
75898;SDS011;64576;50.460;4.866;2022-11-20T08:00:20;106.63;;;29.90;;
75898;SDS011;64576;50.460;4.866;2022-11-20T08:02:46;136.63;;;31.65;;
75898;SDS011;64576;50.460;4.866;2022-11-20T08:05:11;106.43;;;27.27;;
75898;SDS011;64576;50.460;4.866;2022-11-20T08:07:37;126.40;;;30.63;;
75898;SDS011;64576;50.460;4.866;2022-11-20T08:10:04;127.43;;;30.58;;
75898;SDS011;64576;50.460;4.866;2022-11-20T08:12:29;144.00;;;35.17;;
75898;SDS011;64576;50.460;4.866;2022-11-20T08:15:13;138.77;;;34.35;;
75898;SDS011;64576;50.460;4.866;2022-11-20T08:17:39;146.23;;;34.05;;
75898;SDS011;64576;50.460;4.866;2022-11-20T08:20:04;123.80;;;30.33;;
75898;SDS011;64576;50.460;4.866;2022-11-20T08:22:30;145.68;;;30.98;;
75898;SDS011;64576;50.460;4.866;2022-11-20T08:24:55;497.30;;;63.45;;
75898;SDS011;64576;50.460;4.866;2022-11-20T08:27:20;409.05;;;52.13;;
75898;SDS011;64576;50.460;4.866;2022-11-20T08:29:46;432.80;;;58.40;;
75898;SDS011;64576;50.460;4.866;2022-11-20T08:32:11;586.97;;;73.75;;
75898;SDS011;64576;50.460;4.866;2022-11-20T08:34:36;607.53;;;76.47;;
75898;SDS011;64576;50.460;4.866;2022-11-20T08:37:02;298.33;;;42.38;;
75898;SDS011;64576;50.460;4.866;2022-11-20T08:39:27;310.33;;;42.33;;
75898;SDS011;64576;50.460;4.866;2022-11-20T08:41:53;243.48;;;41.90;;
75898;SDS011;64576;50.460;4.866;2022-11-20T08:44:18;153.02;;;34.00;;
75898;SDS011;64576;50.460;4.866;2022-11-20T08:46:43;165.90;;;33.40;;
75898;SDS011;64576;50.460;4.866;2022-11-20T08:49:11;153.68;;;32.33;;
75898;SDS011;64576;50.460;4.866;2022-11-20T08:51:39;106.85;;;29.58;;
75898;SDS011;64576;50.460;4.866;2022-11-20T08:54:05;102.25;;;28.52;;
75898;SDS011;64576;50.460;4.866;2022-11-20T08:56:31;115.50;;;31.15;;
75898;SDS011;64576;50.460;4.866;2022-11-20T08:58:57;140.48;;;35.88;;
75898;SDS011;64576;50.460;4.866;2022-11-20T09:01:26;101.53;;;28.20;;
75898;SDS011;64576;50.460;4.866;2022-11-20T09:03:52;102.30;;;29.85;;
75898;SDS011;64576;50.460;4.866;2022-11-20T09:06:17;100.93;;;29.67;;
75898;SDS011;64576;50.460;4.866;2022-11-20T09:08:43;105.50;;;31.83;;
75898;SDS011;64576;50.460;4.866;2022-11-20T09:11:09;111.32;;;34.63;;
75898;SDS011;64576;50.460;4.866;2022-11-20T09:13:35;107.18;;;32.00;;
75898;SDS011;64576;50.460;4.866;2022-11-20T09:16:02;93.22;;;32.47;;
75898;SDS011;64576;50.460;4.866;2022-11-20T09:18:31;73.28;;;25.88;;
75898;SDS011;64576;50.460;4.866;2022-11-20T09:21:00;64.05;;;25.63;;
75898;SDS011;64576;50.460;4.866;2022-11-20T09:23:30;51.65;;;19.80;;
75898;SDS011;64576;50.460;4.866;2022-11-20T09:25:56;48.80;;;18.60;;
75898;SDS011;64576;50.460;4.866;2022-11-20T09:28:24;48.38;;;18.15;;
75898;SDS011;64576;50.460;4.866;2022-11-20T09:30:50;27.67;;;12.85;;
75898;SDS011;64576;50.460;4.866;2022-11-20T09:33:16;38.15;;;15.52;;
75898;SDS011;64576;50.460;4.866;2022-11-20T09:35:41;30.98;;;13.25;;
75898;SDS011;64576;50.460;4.866;2022-11-20T09:38:08;27.20;;;10.52;;
75898;SDS011;64576;50.460;4.866;2022-11-20T09:40:35;25.52;;;12.23;;
75898;SDS011;64576;50.460;4.866;2022-11-20T09:43:18;24.70;;;10.98;;
75898;SDS011;64576;50.460;4.866;2022-11-20T09:51:16;25.67;;;10.07;;
75898;SDS011;64576;50.460;4.866;2022-11-20T09:56:56;20.60;;;9.73;;
75898;SDS011;64576;50.460;4.866;2022-11-20T09:59:41;13.75;;;6.63;;
75898;SDS011;64576;50.460;4.866;2022-11-20T10:05:06;17.80;;;7.35;;
75898;SDS011;64576;50.460;4.866;2022-11-20T10:07:52;19.58;;;7.15;;
75898;SDS011;64576;50.460;4.866;2022-11-20T10:21:19;21.00;;;9.05;;
75898;SDS011;64576;50.460;4.866;2022-11-20T10:29:36;20.60;;;7.28;;
75898;SDS011;64576;50.460;4.866;2022-11-20T10:32:16;14.82;;;6.85;;
75898;SDS011;64576;50.460;4.866;2022-11-20T10:34:52;11.05;;;5.00;;
75898;SDS011;64576;50.460;4.866;2022-11-20T10:37:25;12.13;;;5.38;;
75898;SDS011;64576;50.460;4.866;2022-11-20T10:42:29;15.88;;;4.85;;
75898;SDS011;64576;50.460;4.866;2022-11-20T10:45:09;18.67;;;5.40;;
75898;SDS011;64576;50.460;4.866;2022-11-20T10:47:44;9.63;;;4.85;;
75898;SDS011;64576;50.460;4.866;2022-11-20T10:50:10;11.60;;;4.20;;
75898;SDS011;64576;50.460;4.866;2022-11-20T10:58:10;9.15;;;4.18;;
75898;SDS011;64576;50.460;4.866;2022-11-20T11:00:41;10.73;;;4.47;;
75898;SDS011;64576;50.460;4.866;2022-11-20T11:03:14;12.23;;;4.30;;
75898;SDS011;64576;50.460;4.866;2022-11-20T11:05:48;8.70;;;4.20;;
75898;SDS011;64576;50.460;4.866;2022-11-20T11:08:19;10.35;;;3.35;;
75898;SDS011;64576;50.460;4.866;2022-11-20T11:13:27;8.82;;;4.53;;
75898;SDS011;64576;50.460;4.866;2022-11-20T11:15:54;9.98;;;3.35;;
75898;SDS011;64576;50.460;4.866;2022-11-20T11:18:24;7.45;;;3.80;;
75898;SDS011;64576;50.460;4.866;2022-11-20T11:20:51;10.43;;;4.75;;
75898;SDS011;64576;50.460;4.866;2022-11-20T11:23:27;8.75;;;3.97;;
75898;SDS011;64576;50.460;4.866;2022-11-20T11:25:56;14.13;;;4.60;;
75898;SDS011;64576;50.460;4.866;2022-11-20T11:28:23;5.53;;;2.75;;
75898;SDS011;64576;50.460;4.866;2022-11-20T11:30:52;9.68;;;3.97;;
75898;SDS011;64576;50.460;4.866;2022-11-20T11:33:19;7.85;;;3.33;;
75898;SDS011;64576;50.460;4.866;2022-11-20T11:35:49;8.70;;;3.00;;
75898;SDS011;64576;50.460;4.866;2022-11-20T11:41:07;11.70;;;3.75;;
75898;SDS011;64576;50.460;4.866;2022-11-20T11:43:37;8.30;;;3.03;;
75898;SDS011;64576;50.460;4.866;2022-11-20T11:46:34;11.40;;;3.20;;
75898;SDS011;64576;50.460;4.866;2022-11-20T11:49:08;7.43;;;2.50;;
75898;SDS011;64576;50.460;4.866;2022-11-20T11:51:50;10.95;;;3.83;;
75898;SDS011;64576;50.460;4.866;2022-11-20T11:54:37;8.82;;;3.60;;
75898;SDS011;64576;50.460;4.866;2022-11-20T11:57:23;8.70;;;2.92;;
75898;SDS011;64576;50.460;4.866;2022-11-20T11:59:55;7.22;;;2.80;;
75898;SDS011;64576;50.460;4.866;2022-11-20T12:10:37;6.18;;;2.95;;
75898;SDS011;64576;50.460;4.866;2022-11-20T12:13:25;9.25;;;3.67;;
75898;SDS011;64576;50.460;4.866;2022-11-20T12:15:58;10.00;;;3.28;;
75898;SDS011;64576;50.460;4.866;2022-11-20T12:18:24;8.93;;;3.28;;
75898;SDS011;64576;50.460;4.866;2022-11-20T12:23:28;8.00;;;3.63;;
75898;SDS011;64576;50.460;4.866;2022-11-20T12:26:13;9.73;;;3.17;;
75898;SDS011;64576;50.460;4.866;2022-11-20T12:31:40;9.38;;;3.53;;
75898;SDS011;64576;50.460;4.866;2022-11-20T12:34:27;6.80;;;2.58;;
75898;SDS011;64576;50.460;4.866;2022-11-20T12:40:20;12.00;;;3.33;;
75898;SDS011;64576;50.460;4.866;2022-11-20T12:42:57;8.57;;;2.85;;
75898;SDS011;64576;50.460;4.866;2022-11-20T12:49:14;10.02;;;3.53;;
75898;SDS011;64576;50.460;4.866;2022-11-20T12:54:42;9.32;;;3.63;;
75898;SDS011;64576;50.460;4.866;2022-11-20T13:02:30;9.85;;;4.00;;
75898;SDS011;64576;50.460;4.866;2022-11-20T13:07:57;14.20;;;4.07;;
75898;SDS011;64576;50.460;4.866;2022-11-20T13:13:33;8.45;;;3.97;;
75898;SDS011;64576;50.460;4.866;2022-11-20T13:16:22;11.20;;;4.75;;
75898;SDS011;64576;50.460;4.866;2022-11-20T13:19:03;17.67;;;6.67;;
75898;SDS011;64576;50.460;4.866;2022-11-20T13:21:43;11.15;;;5.45;;
75898;SDS011;64576;50.460;4.866;2022-11-20T13:29:33;14.00;;;6.38;;
75898;SDS011;64576;50.460;4.866;2022-11-20T13:32:03;12.02;;;5.60;;
75898;SDS011;64576;50.460;4.866;2022-11-20T13:34:54;8.30;;;5.30;;
75898;SDS011;64576;50.460;4.866;2022-11-20T13:37:33;18.23;;;7.00;;
75898;SDS011;64576;50.460;4.866;2022-11-20T13:42:33;14.88;;;6.55;;
75898;SDS011;64576;50.460;4.866;2022-11-20T13:45:02;11.25;;;7.20;;
75898;SDS011;64576;50.460;4.866;2022-11-20T13:47:35;15.57;;;8.77;;
75898;SDS011;64576;50.460;4.866;2022-11-20T13:50:00;20.25;;;10.15;;
75898;SDS011;64576;50.460;4.866;2022-11-20T14:03:02;22.17;;;9.88;;
75898;SDS011;64576;50.460;4.866;2022-11-20T14:05:49;17.50;;;7.82;;
75898;SDS011;64576;50.460;4.866;2022-11-20T14:11:21;14.40;;;7.85;;
75898;SDS011;64576;50.460;4.866;2022-11-20T14:16:45;14.63;;;8.07;;
75898;SDS011;64576;50.460;4.866;2022-11-20T14:19:21;14.05;;;7.55;;
75898;SDS011;64576;50.460;4.866;2022-11-20T14:22:09;11.25;;;7.05;;
75898;SDS011;64576;50.460;4.866;2022-11-20T14:24:46;8.82;;;4.90;;
75898;SDS011;64576;50.460;4.866;2022-11-20T14:27:25;11.82;;;7.05;;
75898;SDS011;64576;50.460;4.866;2022-11-20T14:29:50;12.82;;;5.13;;
75898;SDS011;64576;50.460;4.866;2022-11-20T14:32:17;7.18;;;3.92;;
75898;SDS011;64576;50.460;4.866;2022-11-20T14:34:44;8.63;;;4.68;;
75898;SDS011;64576;50.460;4.866;2022-11-20T14:37:13;6.90;;;3.78;;
75898;SDS011;64576;50.460;4.866;2022-11-20T14:39:49;7.20;;;3.37;;
75898;SDS011;64576;50.460;4.866;2022-11-20T14:42:23;6.47;;;3.85;;
75898;SDS011;64576;50.460;4.866;2022-11-20T14:47:21;5.10;;;2.95;;
75898;SDS011;64576;50.460;4.866;2022-11-20T14:49:48;6.03;;;2.87;;
75898;SDS011;64576;50.460;4.866;2022-11-20T14:52:19;4.30;;;2.08;;
75898;SDS011;64576;50.460;4.866;2022-11-20T14:54:49;4.75;;;2.63;;
75898;SDS011;64576;50.460;4.866;2022-11-20T14:57:37;5.50;;;2.10;;
75898;SDS011;64576;50.460;4.866;2022-11-20T15:02:44;4.57;;;2.05;;
75898;SDS011;64576;50.460;4.866;2022-11-20T15:05:11;5.20;;;2.22;;
75898;SDS011;64576;50.460;4.866;2022-11-20T15:07:39;3.40;;;1.70;;
75898;SDS011;64576;50.460;4.866;2022-11-20T15:10:11;4.60;;;1.90;;
75898;SDS011;64576;50.460;4.866;2022-11-20T15:12:53;3.45;;;1.80;;
75898;SDS011;64576;50.460;4.866;2022-11-20T15:18:16;4.63;;;2.13;;
75898;SDS011;64576;50.460;4.866;2022-11-20T15:20:44;3.58;;;2.15;;
75898;SDS011;64576;50.460;4.866;2022-11-20T15:23:14;4.38;;;1.98;;
75898;SDS011;64576;50.460;4.866;2022-11-20T15:25:43;6.68;;;2.28;;
75898;SDS011;64576;50.460;4.866;2022-11-20T15:28:55;4.72;;;2.33;;
75898;SDS011;64576;50.460;4.866;2022-11-20T15:31:04;8.55;;;3.08;;
75898;SDS011;64576;50.460;4.866;2022-11-20T15:33:31;7.72;;;2.95;;
75898;SDS011;64576;50.460;4.866;2022-11-20T15:35:57;5.05;;;3.03;;
75898;SDS011;64576;50.460;4.866;2022-11-20T15:38:22;7.28;;;2.90;;
75898;SDS011;64576;50.460;4.866;2022-11-20T15:40:48;8.68;;;3.50;;
75898;SDS011;64576;50.460;4.866;2022-11-20T15:43:13;5.72;;;2.72;;
75898;SDS011;64576;50.460;4.866;2022-11-20T15:45:46;7.47;;;3.40;;
75898;SDS011;64576;50.460;4.866;2022-11-20T15:48:15;6.85;;;3.70;;
75898;SDS011;64576;50.460;4.866;2022-11-20T15:50:43;9.07;;;4.63;;
75898;SDS011;64576;50.460;4.866;2022-11-20T15:53:30;7.07;;;4.13;;
75898;SDS011;64576;50.460;4.866;2022-11-20T15:55:56;6.45;;;3.85;;
75898;SDS011;64576;50.460;4.866;2022-11-20T15:58:21;9.27;;;4.05;;
75898;SDS011;64576;50.460;4.866;2022-11-20T16:00:49;11.23;;;4.13;;
75898;SDS011;64576;50.460;4.866;2022-11-20T16:03:17;10.77;;;5.10;;
75898;SDS011;64576;50.460;4.866;2022-11-20T16:05:43;6.03;;;3.25;;
75898;SDS011;64576;50.460;4.866;2022-11-20T16:08:09;9.18;;;3.78;;
75898;SDS011;64576;50.460;4.866;2022-11-20T16:10:35;9.55;;;3.85;;
75898;SDS011;64576;50.460;4.866;2022-11-20T16:13:01;7.68;;;4.10;;
75898;SDS011;64576;50.460;4.866;2022-11-20T16:15:53;10.55;;;3.72;;
75898;SDS011;64576;50.460;4.866;2022-11-20T16:18:22;7.13;;;3.45;;
75898;SDS011;64576;50.460;4.866;2022-11-20T16:20:49;9.73;;;4.20;;
75898;SDS011;64576;50.460;4.866;2022-11-20T16:23:19;9.43;;;4.13;;
75898;SDS011;64576;50.460;4.866;2022-11-20T16:25:45;8.38;;;4.25;;
75898;SDS011;64576;50.460;4.866;2022-11-20T16:28:10;10.63;;;4.00;;